Gulbeniz A — TCZK8 — position and weather

sailwx.info

Track history (hours):
 
Tides and Currents Weather Stations Pressure Air Temp Water Temp Dewpoint Dewpoint Depression Visibility Wind Speed Wind Dir Waves Ship Positions

Gulbeniz A

Last reported at 2014-Oct-11 04:08 UTC. Time now 2014-Oct-22 13:56 UTC.
Position N 36°01' W 005°20'.
Warning: this ship's position is 11 days out of date.

Length 210 m; draft 11 m.

Type: Ship (hazmat cat A). MMSI: 271042493.

Date/timePositionNaut miles runAvg speedWind from/ knotsBaromVisibWave heightAir tempDewpointWater temp
2014-Oct-11 04:08N 36°01' W 005°20'5 0.3
2014-Oct-10 10:33N 35°60' W 005°15'5 0.1
2014-Oct-08 13:08N 36°03' W 005°18'16213.7
2014-Oct-08 01:20N 36°33' W 002°01'1814.5
2014-Oct-08 00:07N 36°45' W 001°44'814.6
2014-Oct-07 23:32N 36°50' W 001°37'1614.7
2014-Oct-07 22:26N 37°01' W 001°21'1314.7
2014-Oct-07 21:33N 37°10' W 001°09'1514.7
2014-Oct-07 20:33N 37°19' W 000°55'1515.1
2014-Oct-07 19:33N 37°29' W 000°41'1514.5
2014-Oct-07 18:33N 37°40' W 000°29'1514.5
2014-Oct-07 17:29N 37°53' W 000°18'1314.6
2014-Oct-07 16:34N 38°04' W 000°09'1414.3
2014-Oct-07 15:33N 38°16' E 000°01'1513.7
2014-Oct-07 14:26N 38°29' E 000°12'5412.9
2014-Oct-07 10:14N 39°21' W 000°09'913.5
2014-Oct-07 09:33N 39°26' W 000°19'1 0.5
2014-Oct-07 08:31N 39°27' W 000°19'0 0.0
2014-Oct-07 07:31N 39°27' W 000°19'0 0.0
2014-Oct-07 06:31N 39°27' W 000°19'0 0.0
2014-Oct-07 05:31N 39°27' W 000°19'0 0.0
2014-Oct-07 04:31N 39°27' W 000°19'0 0.0
2014-Oct-07 03:28N 39°27' W 000°19'0 0.0
2014-Oct-07 02:31N 39°27' W 000°19'0 0.0
2014-Oct-07 01:31N 39°27' W 000°19'0 0.0
2014-Oct-07 00:31N 39°27' W 000°19'0 0.0
2014-Oct-06 23:31N 39°27' W 000°19'0 0.0
2014-Oct-06 22:31N 39°27' W 000°19'0 0.0
2014-Oct-06 21:31N 39°27' W 000°19'0 0.0
2014-Oct-06 20:31N 39°27' W 000°19'0 0.0
2014-Oct-06 19:31N 39°27' W 000°19'0 0.0
2014-Oct-06 18:31N 39°27' W 000°19'0 0.0
2014-Oct-06 17:31N 39°27' W 000°19'0 0.0
2014-Oct-06 16:31N 39°27' W 000°19'0 0.0
2014-Oct-06 15:16N 39°27' W 000°19'0 0.0
2014-Oct-06 14:31N 39°27' W 000°19'0 0.0
2014-Oct-06 13:31N 39°27' W 000°19'0 0.0
2014-Oct-06 12:31N 39°27' W 000°19'0 0.0
2014-Oct-06 11:31N 39°27' W 000°19'0 0.0
2014-Oct-06 10:31N 39°27' W 000°19'1 0.6
2014-Oct-06 09:33N 39°26' W 000°19'3 3.3
2014-Oct-06 08:29N 39°24' W 000°15'0 0.0
2014-Oct-06 07:20N 39°24' W 000°15'0 0.0
2014-Oct-06 06:23N 39°24' W 000°15'0 0.2
2014-Oct-06 05:32N 39°24' W 000°15'0 0.0
2014-Oct-06 04:26N 39°24' W 000°15'0 0.1
2014-Oct-06 03:32N 39°24' W 000°15'0 0.0
2014-Oct-06 02:13N 39°24' W 000°15'0 0.0
2014-Oct-06 01:28N 39°24' W 000°15'0 0.1
2014-Oct-06 00:25N 39°24' W 000°15'0 0.0
2014-Oct-05 23:28N 39°24' W 000°15'0 0.0
2014-Oct-05 22:31N 39°24' W 000°15'0 0.0
2014-Oct-05 21:28N 39°24' W 000°15'2 0.3
2014-Oct-05 13:33N 39°24' W 000°12'1 1.1
2014-Oct-05 12:16N 39°24' W 000°14'1 0.4
2014-Oct-05 08:31N 39°24' W 000°16'0 0.0
2014-Oct-05 07:19N 39°24' W 000°16'0 0.0
2014-Oct-05 05:31N 39°24' W 000°16'0 0.0
2014-Oct-05 04:31N 39°24' W 000°16'0 0.0
2014-Oct-05 03:31N 39°24' W 000°16'0 0.0
2014-Oct-05 02:31N 39°24' W 000°16'0 0.0
2014-Oct-05 01:31N 39°24' W 000°16'0 0.0
2014-Oct-05 00:31N 39°24' W 000°16'0 0.0
2014-Oct-04 23:31N 39°24' W 000°16'6 6.5
2014-Oct-04 22:34N 39°29' W 000°11'9214.8
2014-Oct-04 16:22N 40°42' E 001°02'1514.7
2014-Oct-04 15:20N 40°56' E 001°09'1012.4
2014-Oct-04 14:32N 41°05' E 001°13'0 0.1
2014-Oct-04 11:04N 41°06' E 001°13'0 0.0
2014-Oct-04 10:33N 41°06' E 001°13'0 0.0
2014-Oct-04 09:33N 41°05' E 001°13'0 0.0
2014-Oct-04 08:21N 41°05' E 001°13'0 0.0
2014-Oct-04 07:27N 41°06' E 001°13'0 0.0
2014-Oct-04 06:33N 41°06' E 001°13'0 0.0
2014-Oct-04 05:27N 41°06' E 001°13'1 1.6
2014-Oct-04 04:33N 41°04' E 001°12'1010.0
2014-Oct-04 03:33N 40°54' E 001°10'1514.8
2014-Oct-04 02:33N 40°40' E 001°05'1615.5
2014-Oct-04 01:33N 40°25' E 001°01'1615.5
2014-Oct-04 00:33N 40°10' E 000°57'1515.4
2014-Oct-03 23:33N 39°54' E 000°53'9315.5
2014-Oct-03 17:32N 38°26' E 000°14'1615.2
2014-Oct-03 16:29N 38°13' E 000°03'4515.2
2014-Oct-03 13:33N 37°36' W 000°29'1514.7
2014-Oct-03 12:33N 37°26' W 000°42'1614.5
2014-Oct-03 11:27N 37°15' W 000°57'22315.0
2014-Oct-02 20:34N 35°59' W 005°18'  
Track history (hours):
 
Tides and Currents Weather Stations Pressure Air Temp Water Temp Dewpoint Dewpoint Depression Visibility Wind Speed Wind Dir Waves Ship Positions

Gulbeniz A

Last reported at 2014-Oct-11 04:08 UTC. Time now 2014-Oct-22 13:56 UTC.
Position N 36°01' W 005°20'.
Warning: this ship's position is 11 days out of date.

Length 210 m; draft 11 m.

Type: Ship (hazmat cat A). MMSI: 271042493.

Date/timePositionNaut miles runAvg speedWind from/ knotsBaromVisibWave heightAir tempDewpointWater temp
2014-Oct-11 04:08N 36°01' W 005°20'5 0.3
2014-Oct-10 10:33N 35°60' W 005°15'5 0.1
2014-Oct-08 13:08N 36°03' W 005°18'16213.7
2014-Oct-08 01:20N 36°33' W 002°01'1814.5
2014-Oct-08 00:07N 36°45' W 001°44'814.6
2014-Oct-07 23:32N 36°50' W 001°37'1614.7
2014-Oct-07 22:26N 37°01' W 001°21'1314.7
2014-Oct-07 21:33N 37°10' W 001°09'1514.7
2014-Oct-07 20:33N 37°19' W 000°55'1515.1
2014-Oct-07 19:33N 37°29' W 000°41'1514.5
2014-Oct-07 18:33N 37°40' W 000°29'1514.5
2014-Oct-07 17:29N 37°53' W 000°18'1314.6
2014-Oct-07 16:34N 38°04' W 000°09'1414.3
2014-Oct-07 15:33N 38°16' E 000°01'1513.7
2014-Oct-07 14:26N 38°29' E 000°12'5412.9
2014-Oct-07 10:14N 39°21' W 000°09'913.5
2014-Oct-07 09:33N 39°26' W 000°19'1 0.5
2014-Oct-07 08:31N 39°27' W 000°19'0 0.0
2014-Oct-07 07:31N 39°27' W 000°19'0 0.0
2014-Oct-07 06:31N 39°27' W 000°19'0 0.0
2014-Oct-07 05:31N 39°27' W 000°19'0 0.0
2014-Oct-07 04:31N 39°27' W 000°19'0 0.0
2014-Oct-07 03:28N 39°27' W 000°19'0 0.0
2014-Oct-07 02:31N 39°27' W 000°19'0 0.0
2014-Oct-07 01:31N 39°27' W 000°19'0 0.0
2014-Oct-07 00:31N 39°27' W 000°19'0 0.0
2014-Oct-06 23:31N 39°27' W 000°19'0 0.0
2014-Oct-06 22:31N 39°27' W 000°19'0 0.0
2014-Oct-06 21:31N 39°27' W 000°19'0 0.0
2014-Oct-06 20:31N 39°27' W 000°19'0 0.0
2014-Oct-06 19:31N 39°27' W 000°19'0 0.0
2014-Oct-06 18:31N 39°27' W 000°19'0 0.0
2014-Oct-06 17:31N 39°27' W 000°19'0 0.0
2014-Oct-06 16:31N 39°27' W 000°19'0 0.0
2014-Oct-06 15:16N 39°27' W 000°19'0 0.0
2014-Oct-06 14:31N 39°27' W 000°19'0 0.0
2014-Oct-06 13:31N 39°27' W 000°19'0 0.0
2014-Oct-06 12:31N 39°27' W 000°19'0 0.0
2014-Oct-06 11:31N 39°27' W 000°19'0 0.0
2014-Oct-06 10:31N 39°27' W 000°19'1 0.6
2014-Oct-06 09:33N 39°26' W 000°19'3 3.3
2014-Oct-06 08:29N 39°24' W 000°15'0 0.0
2014-Oct-06 07:20N 39°24' W 000°15'0 0.0
2014-Oct-06 06:23N 39°24' W 000°15'0 0.2
2014-Oct-06 05:32N 39°24' W 000°15'0 0.0
2014-Oct-06 04:26N 39°24' W 000°15'0 0.1
2014-Oct-06 03:32N 39°24' W 000°15'0 0.0
2014-Oct-06 02:13N 39°24' W 000°15'0 0.0
2014-Oct-06 01:28N 39°24' W 000°15'0 0.1
2014-Oct-06 00:25N 39°24' W 000°15'0 0.0
2014-Oct-05 23:28N 39°24' W 000°15'0 0.0
2014-Oct-05 22:31N 39°24' W 000°15'0 0.0
2014-Oct-05 21:28N 39°24' W 000°15'2 0.3
2014-Oct-05 13:33N 39°24' W 000°12'1 1.1
2014-Oct-05 12:16N 39°24' W 000°14'1 0.4
2014-Oct-05 08:31N 39°24' W 000°16'0 0.0
2014-Oct-05 07:19N 39°24' W 000°16'0 0.0
2014-Oct-05 05:31N 39°24' W 000°16'0 0.0
2014-Oct-05 04:31N 39°24' W 000°16'0 0.0
2014-Oct-05 03:31N 39°24' W 000°16'0 0.0
2014-Oct-05 02:31N 39°24' W 000°16'0 0.0
2014-Oct-05 01:31N 39°24' W 000°16'0 0.0
2014-Oct-05 00:31N 39°24' W 000°16'0 0.0
2014-Oct-04 23:31N 39°24' W 000°16'6 6.5
2014-Oct-04 22:34N 39°29' W 000°11'9214.8
2014-Oct-04 16:22N 40°42' E 001°02'1514.7
2014-Oct-04 15:20N 40°56' E 001°09'1012.4
2014-Oct-04 14:32N 41°05' E 001°13'0 0.1
2014-Oct-04 11:04N 41°06' E 001°13'0 0.0
2014-Oct-04 10:33N 41°06' E 001°13'0 0.0
2014-Oct-04 09:33N 41°05' E 001°13'0 0.0
2014-Oct-04 08:21N 41°05' E 001°13'0 0.0
2014-Oct-04 07:27N 41°06' E 001°13'0 0.0
2014-Oct-04 06:33N 41°06' E 001°13'0 0.0
2014-Oct-04 05:27N 41°06' E 001°13'1 1.6
2014-Oct-04 04:33N 41°04' E 001°12'1010.0
2014-Oct-04 03:33N 40°54' E 001°10'1514.8
2014-Oct-04 02:33N 40°40' E 001°05'1615.5
2014-Oct-04 01:33N 40°25' E 001°01'1615.5
2014-Oct-04 00:33N 40°10' E 000°57'1515.4
2014-Oct-03 23:33N 39°54' E 000°53'9315.5
2014-Oct-03 17:32N 38°26' E 000°14'1615.2
2014-Oct-03 16:29N 38°13' E 000°03'4515.2
2014-Oct-03 13:33N 37°36' W 000°29'1514.7
2014-Oct-03 12:33N 37°26' W 000°42'1614.5
2014-Oct-03 11:27N 37°15' W 000°57'22315.0
2014-Oct-02 20:34N 35°59' W 005°18'  

Dump ship's entire track history